sensor_id;sensor_type;location;lat;lon;timestamp;temperature;humidity
8736;DHT22;4404;49.308;12.178;2023-08-06T05:33:16;14.20;99.90
8736;DHT22;4404;49.308;12.178;2023-08-06T05:35:18;14.30;99.90
8736;DHT22;4404;49.308;12.178;2023-08-06T05:37:20;14.30;99.90
8736;DHT22;4404;49.308;12.178;2023-08-06T05:39:23;14.40;99.90
8736;DHT22;4404;49.308;12.178;2023-08-06T05:41:25;14.50;99.90
8736;DHT22;4404;49.308;12.178;2023-08-06T05:43:27;14.60;99.90
8736;DHT22;4404;49.308;12.178;2023-08-06T05:45:29;14.80;99.90
8736;DHT22;4404;49.308;12.178;2023-08-06T05:47:31;14.80;99.90
8736;DHT22;4404;49.308;12.178;2023-08-06T05:49:34;14.90;99.90
8736;DHT22;4404;49.308;12.178;2023-08-06T05:51:36;14.90;99.90
8736;DHT22;4404;49.308;12.178;2023-08-06T05:53:38;14.90;99.90
8736;DHT22;4404;49.308;12.178;2023-08-06T05:55:41;15.00;99.90
8736;DHT22;4404;49.308;12.178;2023-08-06T05:57:43;15.20;99.90
8736;DHT22;4404;49.308;12.178;2023-08-06T05:59:45;15.10;99.90
8736;DHT22;4404;49.308;12.178;2023-08-06T06:01:47;15.10;99.90
8736;DHT22;4404;49.308;12.178;2023-08-06T06:03:49;15.20;99.90
8736;DHT22;4404;49.308;12.178;2023-08-06T06:05:52;15.20;99.90
8736;DHT22;4404;49.308;12.178;2023-08-06T06:07:55;15.20;99.90
8736;DHT22;4404;49.308;12.178;2023-08-06T06:09:57;15.20;99.90
8736;DHT22;4404;49.308;12.178;2023-08-06T06:11:59;15.30;99.90
8736;DHT22;4404;49.308;12.178;2023-08-06T06:14:01;15.30;99.90
8736;DHT22;4404;49.308;12.178;2023-08-06T06:16:03;15.40;99.90
8736;DHT22;4404;49.308;12.178;2023-08-06T06:18:05;15.40;99.90
8736;DHT22;4404;49.308;12.178;2023-08-06T06:20:08;15.40;99.90
8736;DHT22;4404;49.308;12.178;2023-08-06T06:22:11;15.40;99.90
8736;DHT22;4404;49.308;12.178;2023-08-06T06:24:13;15.40;99.90
8736;DHT22;4404;49.308;12.178;2023-08-06T06:26:15;15.40;99.90
8736;DHT22;4404;49.308;12.178;2023-08-06T06:28:17;15.40;99.90
8736;DHT22;4404;49.308;12.178;2023-08-06T06:30:19;15.40;99.90
8736;DHT22;4404;49.308;12.178;2023-08-06T06:32:22;15.40;99.90
8736;DHT22;4404;49.308;12.178;2023-08-06T06:34:24;15.40;99.90
8736;DHT22;4404;49.308;12.178;2023-08-06T06:36:26;15.30;99.90
8736;DHT22;4404;49.308;12.178;2023-08-06T06:38:29;15.30;99.90
8736;DHT22;4404;49.308;12.178;2023-08-06T06:40:31;15.30;99.90
8736;DHT22;4404;49.308;12.178;2023-08-06T06:42:33;15.40;99.90
8736;DHT22;4404;49.308;12.178;2023-08-06T06:44:35;15.40;99.90
8736;DHT22;4404;49.308;12.178;2023-08-06T06:46:38;15.40;99.90
8736;DHT22;4404;49.308;12.178;2023-08-06T06:48:40;15.40;99.90
8736;DHT22;4404;49.308;12.178;2023-08-06T06:50:42;15.40;99.90
8736;DHT22;4404;49.308;12.178;2023-08-06T06:52:44;15.40;99.90
8736;DHT22;4404;49.308;12.178;2023-08-06T06:54:48;15.50;99.90
8736;DHT22;4404;49.308;12.178;2023-08-06T06:56:50;15.60;99.90
8736;DHT22;4404;49.308;12.178;2023-08-06T06:58:52;15.70;99.90
8736;DHT22;4404;49.308;12.178;2023-08-06T07:00:54;15.80;99.90
8736;DHT22;4404;49.308;12.178;2023-08-06T07:02:56;15.80;99.90
8736;DHT22;4404;49.308;12.178;2023-08-06T07:04:59;15.70;99.90
8736;DHT22;4404;49.308;12.178;2023-08-06T07:07:01;15.70;99.90
8736;DHT22;4404;49.308;12.178;2023-08-06T07:09:03;15.70;99.90
8736;DHT22;4404;49.308;12.178;2023-08-06T07:11:08;15.70;99.90
8736;DHT22;4404;49.308;12.178;2023-08-06T07:13:10;15.70;99.90
8736;DHT22;4404;49.308;12.178;2023-08-06T07:15:12;15.80;99.90
8736;DHT22;4404;49.308;12.178;2023-08-06T07:17:14;15.70;99.90
8736;DHT22;4404;49.308;12.178;2023-08-06T07:19:16;15.80;99.90
8736;DHT22;4404;49.308;12.178;2023-08-06T07:21:18;15.90;99.90
8736;DHT22;4404;49.308;12.178;2023-08-06T07:23:22;16.00;99.90
8736;DHT22;4404;49.308;12.178;2023-08-06T07:25:31;16.10;99.90
8736;DHT22;4404;49.308;12.178;2023-08-06T07:27:34;16.10;99.90
8736;DHT22;4404;49.308;12.178;2023-08-06T07:29:36;16.10;99.90
8736;DHT22;4404;49.308;12.178;2023-08-06T07:31:38;16.10;99.90
8736;DHT22;4404;49.308;12.178;2023-08-06T07:33:39;16.10;99.90
8736;DHT22;4404;49.308;12.178;2023-08-06T07:35:42;16.20;99.90
8736;DHT22;4404;49.308;12.178;2023-08-06T07:37:44;16.20;99.90
8736;DHT22;4404;49.308;12.178;2023-08-06T07:39:47;16.20;99.90
8736;DHT22;4404;49.308;12.178;2023-08-06T07:41:48;16.20;99.90
8736;DHT22;4404;49.308;12.178;2023-08-06T07:43:51;16.30;99.90
8736;DHT22;4404;49.308;12.178;2023-08-06T07:45:54;16.40;99.90
8736;DHT22;4404;49.308;12.178;2023-08-06T07:47:55;16.60;99.90
8736;DHT22;4404;49.308;12.178;2023-08-06T07:49:57;16.60;99.90
8736;DHT22;4404;49.308;12.178;2023-08-06T07:52:00;16.80;99.90
8736;DHT22;4404;49.308;12.178;2023-08-06T07:54:06;16.90;99.90
8736;DHT22;4404;49.308;12.178;2023-08-06T07:56:10;16.80;99.90
8736;DHT22;4404;49.308;12.178;2023-08-06T07:58:12;16.80;99.90
8736;DHT22;4404;49.308;12.178;2023-08-06T08:00:14;16.90;99.90
8736;DHT22;4404;49.308;12.178;2023-08-06T08:02:17;17.00;99.90
8736;DHT22;4404;49.308;12.178;2023-08-06T08:04:22;17.00;99.90
8736;DHT22;4404;49.308;12.178;2023-08-06T08:06:25;17.00;99.90
8736;DHT22;4404;49.308;12.178;2023-08-06T08:08:30;17.10;99.90
8736;DHT22;4404;49.308;12.178;2023-08-06T08:10:32;17.20;99.90
8736;DHT22;4404;49.308;12.178;2023-08-06T08:12:40;17.50;99.90
8736;DHT22;4404;49.308;12.178;2023-08-06T08:14:43;17.50;99.90
8736;DHT22;4404;49.308;12.178;2023-08-06T08:16:47;17.60;99.90
8736;DHT22;4404;49.308;12.178;2023-08-06T08:18:49;17.80;99.90
8736;DHT22;4404;49.308;12.178;2023-08-06T08:20:51;17.70;99.90
8736;DHT22;4404;49.308;12.178;2023-08-06T08:22:53;17.90;99.90
8736;DHT22;4404;49.308;12.178;2023-08-06T08:24:57;17.80;99.90
8736;DHT22;4404;49.308;12.178;2023-08-06T08:27:00;17.70;99.90
8736;DHT22;4404;49.308;12.178;2023-08-06T08:29:02;17.50;99.90
8736;DHT22;4404;49.308;12.178;2023-08-06T08:31:08;17.40;99.90
8736;DHT22;4404;49.308;12.178;2023-08-06T08:33:11;17.20;99.90
8736;DHT22;4404;49.308;12.178;2023-08-06T08:35:16;16.90;99.90
8736;DHT22;4404;49.308;12.178;2023-08-06T08:37:19;16.70;99.90
8736;DHT22;4404;49.308;12.178;2023-08-06T08:39:21;16.50;99.90
8736;DHT22;4404;49.308;12.178;2023-08-06T08:41:23;16.50;99.90
8736;DHT22;4404;49.308;12.178;2023-08-06T08:43:26;16.60;99.90
8736;DHT22;4404;49.308;12.178;2023-08-06T08:45:29;16.70;99.90
8736;DHT22;4404;49.308;12.178;2023-08-06T08:47:31;16.80;99.90
8736;DHT22;4404;49.308;12.178;2023-08-06T08:49:35;16.90;99.90
8736;DHT22;4404;49.308;12.178;2023-08-06T08:51:38;16.80;99.90
8736;DHT22;4404;49.308;12.178;2023-08-06T08:53:40;16.80;99.90
8736;DHT22;4404;49.308;12.178;2023-08-06T08:55:47;16.70;99.90
8736;DHT22;4404;49.308;12.178;2023-08-06T08:57:49;16.70;99.90
8736;DHT22;4404;49.308;12.178;2023-08-06T08:59:52;16.70;99.90
8736;DHT22;4404;49.308;12.178;2023-08-06T09:01:53;16.60;99.90
8736;DHT22;4404;49.308;12.178;2023-08-06T09:03:58;16.70;99.90
8736;DHT22;4404;49.308;12.178;2023-08-06T09:06:06;16.80;99.90
8736;DHT22;4404;49.308;12.178;2023-08-06T09:08:12;16.90;99.90
8736;DHT22;4404;49.308;12.178;2023-08-06T09:10:18;17.00;99.90
8736;DHT22;4404;49.308;12.178;2023-08-06T09:12:22;17.20;99.90
8736;DHT22;4404;49.308;12.178;2023-08-06T09:14:24;17.40;99.90
8736;DHT22;4404;49.308;12.178;2023-08-06T09:16:27;17.60;99.90
8736;DHT22;4404;49.308;12.178;2023-08-06T09:18:29;17.80;99.90
8736;DHT22;4404;49.308;12.178;2023-08-06T09:20:34;17.80;99.90
8736;DHT22;4404;49.308;12.178;2023-08-06T09:22:37;17.80;99.90
8736;DHT22;4404;49.308;12.178;2023-08-06T09:24:40;17.90;99.90
8736;DHT22;4404;49.308;12.178;2023-08-06T09:26:44;18.10;99.90
8736;DHT22;4404;49.308;12.178;2023-08-06T09:28:46;18.20;99.90
8736;DHT22;4404;49.308;12.178;2023-08-06T09:30:48;18.50;99.90
8736;DHT22;4404;49.308;12.178;2023-08-06T09:32:50;18.70;99.90
8736;DHT22;4404;49.308;12.178;2023-08-06T09:34:56;18.90;99.90
8736;DHT22;4404;49.308;12.178;2023-08-06T09:37:03;19.00;99.90
8736;DHT22;4404;49.308;12.178;2023-08-06T09:39:13;19.00;99.90
8736;DHT22;4404;49.308;12.178;2023-08-06T09:41:26;18.80;99.90
8736;DHT22;4404;49.308;12.178;2023-08-06T09:43:29;18.10;99.90
8736;DHT22;4404;49.308;12.178;2023-08-06T09:45:33;17.80;99.90
8736;DHT22;4404;49.308;12.178;2023-08-06T09:47:36;17.20;99.90
8736;DHT22;4404;49.308;12.178;2023-08-06T09:49:42;17.10;99.90
8736;DHT22;4404;49.308;12.178;2023-08-06T09:51:46;17.00;99.90
8736;DHT22;4404;49.308;12.178;2023-08-06T09:53:51;16.90;99.90
8736;DHT22;4404;49.308;12.178;2023-08-06T09:55:56;16.70;99.90
8736;DHT22;4404;49.308;12.178;2023-08-06T09:57:58;16.70;99.90
8736;DHT22;4404;49.308;12.178;2023-08-06T10:00:01;16.50;99.90
8736;DHT22;4404;49.308;12.178;2023-08-06T10:02:12;16.30;99.90
8736;DHT22;4404;49.308;12.178;2023-08-06T10:04:15;16.40;99.90
8736;DHT22;4404;49.308;12.178;2023-08-06T10:06:18;16.40;99.90
8736;DHT22;4404;49.308;12.178;2023-08-06T10:08:22;16.20;99.90
8736;DHT22;4404;49.308;12.178;2023-08-06T10:10:25;16.10;99.90
8736;DHT22;4404;49.308;12.178;2023-08-06T10:12:32;16.00;99.90
8736;DHT22;4404;49.308;12.178;2023-08-06T10:14:38;16.00;99.90
8736;DHT22;4404;49.308;12.178;2023-08-06T10:16:42;15.90;99.90
8736;DHT22;4404;49.308;12.178;2023-08-06T10:18:45;16.00;99.90
8736;DHT22;4404;49.308;12.178;2023-08-06T10:20:48;16.00;99.90
8736;DHT22;4404;49.308;12.178;2023-08-06T10:23:00;16.10;99.90
8736;DHT22;4404;49.308;12.178;2023-08-06T10:25:04;16.00;99.90
8736;DHT22;4404;49.308;12.178;2023-08-06T10:27:06;16.10;99.90
8736;DHT22;4404;49.308;12.178;2023-08-06T10:29:37;16.00;99.90
8736;DHT22;4404;49.308;12.178;2023-08-06T10:31:58;16.30;99.90
8736;DHT22;4404;49.308;12.178;2023-08-06T10:34:08;15.40;99.90
8736;DHT22;4404;49.308;12.178;2023-08-06T10:36:11;17.20;99.90
8736;DHT22;4404;49.308;12.178;2023-08-06T10:38:15;16.80;99.90
8736;DHT22;4404;49.308;12.178;2023-08-06T10:40:21;16.80;99.90
8736;DHT22;4404;49.308;12.178;2023-08-06T10:42:28;16.80;99.90
8736;DHT22;4404;49.308;12.178;2023-08-06T10:44:31;16.70;99.90
8736;DHT22;4404;49.308;12.178;2023-08-06T10:46:42;16.80;99.90
8736;DHT22;4404;49.308;12.178;2023-08-06T10:48:50;16.60;99.90
8736;DHT22;4404;49.308;12.178;2023-08-06T10:50:53;16.70;99.90
8736;DHT22;4404;49.308;12.178;2023-08-06T10:52:55;16.80;99.90
8736;DHT22;4404;49.308;12.178;2023-08-06T10:54:57;17.10;99.90
8736;DHT22;4404;49.308;12.178;2023-08-06T10:56:58;17.40;99.90
8736;DHT22;4404;49.308;12.178;2023-08-06T10:59:00;17.70;99.90
8736;DHT22;4404;49.308;12.178;2023-08-06T11:01:01;18.00;99.90
8736;DHT22;4404;49.308;12.178;2023-08-06T11:03:05;18.40;99.90
8736;DHT22;4404;49.308;12.178;2023-08-06T11:05:08;18.40;99.90
8736;DHT22;4404;49.308;12.178;2023-08-06T11:07:11;18.20;99.90
8736;DHT22;4404;49.308;12.178;2023-08-06T11:09:15;18.00;99.90
8736;DHT22;4404;49.308;12.178;2023-08-06T11:11:17;17.70;99.90
8736;DHT22;4404;49.308;12.178;2023-08-06T11:13:22;17.50;99.90
8736;DHT22;4404;49.308;12.178;2023-08-06T11:15:25;17.20;99.90
8736;DHT22;4404;49.308;12.178;2023-08-06T11:17:28;17.00;99.90
8736;DHT22;4404;49.308;12.178;2023-08-06T11:19:31;17.00;99.90
8736;DHT22;4404;49.308;12.178;2023-08-06T11:21:33;17.10;99.90
8736;DHT22;4404;49.308;12.178;2023-08-06T11:23:36;17.00;99.90
8736;DHT22;4404;49.308;12.178;2023-08-06T11:25:44;17.10;99.90
8736;DHT22;4404;49.308;12.178;2023-08-06T11:27:46;17.30;99.90
8736;DHT22;4404;49.308;12.178;2023-08-06T11:29:48;17.30;99.90
8736;DHT22;4404;49.308;12.178;2023-08-06T11:31:50;17.20;99.90
8736;DHT22;4404;49.308;12.178;2023-08-06T11:33:53;17.10;99.90
8736;DHT22;4404;49.308;12.178;2023-08-06T11:35:58;17.10;99.90
8736;DHT22;4404;49.308;12.178;2023-08-06T11:38:01;17.10;99.90
8736;DHT22;4404;49.308;12.178;2023-08-06T11:40:08;17.10;99.90
8736;DHT22;4404;49.308;12.178;2023-08-06T11:42:12;16.90;99.90
8736;DHT22;4404;49.308;12.178;2023-08-06T11:44:14;16.90;99.90
8736;DHT22;4404;49.308;12.178;2023-08-06T11:46:16;16.90;99.90
8736;DHT22;4404;49.308;12.178;2023-08-06T11:48:19;16.90;99.90
8736;DHT22;4404;49.308;12.178;2023-08-06T11:50:24;17.00;99.90
8736;DHT22;4404;49.308;12.178;2023-08-06T11:52:28;17.00;99.90
8736;DHT22;4404;49.308;12.178;2023-08-06T11:54:32;16.90;99.90
8736;DHT22;4404;49.308;12.178;2023-08-06T11:56:37;17.00;99.90
8736;DHT22;4404;49.308;12.178;2023-08-06T11:58:41;17.00;99.90
8736;DHT22;4404;49.308;12.178;2023-08-06T12:00:43;17.00;99.90
8736;DHT22;4404;49.308;12.178;2023-08-06T12:02:46;17.20;99.90
8736;DHT22;4404;49.308;12.178;2023-08-06T12:05:03;17.40;99.90
8736;DHT22;4404;49.308;12.178;2023-08-06T12:07:06;17.60;99.90
8736;DHT22;4404;49.308;12.178;2023-08-06T12:09:10;17.50;99.90
8736;DHT22;4404;49.308;12.178;2023-08-06T12:11:12;17.60;99.90
8736;DHT22;4404;49.308;12.178;2023-08-06T12:13:15;17.70;99.90
8736;DHT22;4404;49.308;12.178;2023-08-06T12:15:17;17.80;99.90
8736;DHT22;4404;49.308;12.178;2023-08-06T12:17:19;17.70;99.90
8736;DHT22;4404;49.308;12.178;2023-08-06T12:19:20;17.90;99.90
8736;DHT22;4404;49.308;12.178;2023-08-06T12:21:23;17.80;99.90
8736;DHT22;4404;49.308;12.178;2023-08-06T12:23:26;17.80;99.90
8736;DHT22;4404;49.308;12.178;2023-08-06T12:25:29;17.70;99.90
8736;DHT22;4404;49.308;12.178;2023-08-06T12:27:33;17.80;99.90
8736;DHT22;4404;49.308;12.178;2023-08-06T12:29:36;17.90;99.90
8736;DHT22;4404;49.308;12.178;2023-08-06T12:31:38;17.90;99.90
8736;DHT22;4404;49.308;12.178;2023-08-06T12:33:40;18.10;99.90
8736;DHT22;4404;49.308;12.178;2023-08-06T12:35:42;18.30;99.90
8736;DHT22;4404;49.308;12.178;2023-08-06T12:37:45;18.40;99.90
8736;DHT22;4404;49.308;12.178;2023-08-06T12:39:47;18.60;99.90
8736;DHT22;4404;49.308;12.178;2023-08-06T12:41:51;18.70;99.90
8736;DHT22;4404;49.308;12.178;2023-08-06T12:43:53;18.50;99.90
8736;DHT22;4404;49.308;12.178;2023-08-06T12:45:55;18.30;99.90
8736;DHT22;4404;49.308;12.178;2023-08-06T12:47:57;18.30;99.90
8736;DHT22;4404;49.308;12.178;2023-08-06T12:49:58;18.40;99.90
8736;DHT22;4404;49.308;12.178;2023-08-06T12:52:00;18.30;99.90
8736;DHT22;4404;49.308;12.178;2023-08-06T12:54:05;18.10;99.90
8736;DHT22;4404;49.308;12.178;2023-08-06T12:56:07;17.80;99.90
8736;DHT22;4404;49.308;12.178;2023-08-06T12:58:11;17.30;99.90
8736;DHT22;4404;49.308;12.178;2023-08-06T13:00:13;16.90;99.90
8736;DHT22;4404;49.308;12.178;2023-08-06T13:02:16;16.80;99.90
8736;DHT22;4404;49.308;12.178;2023-08-06T13:04:18;16.80;99.90
8736;DHT22;4404;49.308;12.178;2023-08-06T13:06:21;16.60;99.90
8736;DHT22;4404;49.308;12.178;2023-08-06T13:08:24;16.60;99.90
8736;DHT22;4404;49.308;12.178;2023-08-06T13:10:26;16.60;99.90
8736;DHT22;4404;49.308;12.178;2023-08-06T13:12:29;16.50;99.90
8736;DHT22;4404;49.308;12.178;2023-08-06T13:14:33;16.30;99.90
8736;DHT22;4404;49.308;12.178;2023-08-06T13:16:36;16.30;99.90
8736;DHT22;4404;49.308;12.178;2023-08-06T13:18:39;16.10;99.90
8736;DHT22;4404;49.308;12.178;2023-08-06T13:20:41;16.00;99.90
8736;DHT22;4404;49.308;12.178;2023-08-06T13:22:43;16.00;99.90
8736;DHT22;4404;49.308;12.178;2023-08-06T13:24:46;15.90;99.90
8736;DHT22;4404;49.308;12.178;2023-08-06T13:26:49;15.90;99.90
8736;DHT22;4404;49.308;12.178;2023-08-06T13:28:50;16.00;99.90
8736;DHT22;4404;49.308;12.178;2023-08-06T13:30:53;16.10;99.90
8736;DHT22;4404;49.308;12.178;2023-08-06T13:32:55;16.20;99.90
8736;DHT22;4404;49.308;12.178;2023-08-06T13:34:57;16.20;99.90
8736;DHT22;4404;49.308;12.178;2023-08-06T13:36:59;16.30;99.90
8736;DHT22;4404;49.308;12.178;2023-08-06T13:39:00;16.40;99.90
8736;DHT22;4404;49.308;12.178;2023-08-06T13:41:04;16.60;99.90
8736;DHT22;4404;49.308;12.178;2023-08-06T13:43:06;16.80;99.90
8736;DHT22;4404;49.308;12.178;2023-08-06T13:45:10;17.20;99.90
8736;DHT22;4404;49.308;12.178;2023-08-06T13:47:14;17.60;99.90
8736;DHT22;4404;49.308;12.178;2023-08-06T13:49:16;17.90;99.90
8736;DHT22;4404;49.308;12.178;2023-08-06T13:51:20;18.10;99.90
8736;DHT22;4404;49.308;12.178;2023-08-06T13:53:24;18.30;99.90
8736;DHT22;4404;49.308;12.178;2023-08-06T13:55:30;18.20;99.90
8736;DHT22;4404;49.308;12.178;2023-08-06T13:59:38;18.50;99.90
8736;DHT22;4404;49.308;12.178;2023-08-06T14:01:41;18.20;99.90
8736;DHT22;4404;49.308;12.178;2023-08-06T14:03:47;18.00;99.90
8736;DHT22;4404;49.308;12.178;2023-08-06T14:05:49;17.70;99.90
8736;DHT22;4404;49.308;12.178;2023-08-06T14:07:52;17.30;99.90
8736;DHT22;4404;49.308;12.178;2023-08-06T14:09:54;17.10;99.90
8736;DHT22;4404;49.308;12.178;2023-08-06T14:11:57;17.00;99.90
8736;DHT22;4404;49.308;12.178;2023-08-06T14:13:59;16.90;99.90
8736;DHT22;4404;49.308;12.178;2023-08-06T14:16:03;16.80;99.90
8736;DHT22;4404;49.308;12.178;2023-08-06T14:18:05;16.70;99.90
8736;DHT22;4404;49.308;12.178;2023-08-06T14:20:11;16.70;99.90
8736;DHT22;4404;49.308;12.178;2023-08-06T14:22:13;16.80;99.90
8736;DHT22;4404;49.308;12.178;2023-08-06T14:24:14;16.80;99.90
8736;DHT22;4404;49.308;12.178;2023-08-06T14:26:17;16.90;99.90
8736;DHT22;4404;49.308;12.178;2023-08-06T14:28:19;17.10;99.90
8736;DHT22;4404;49.308;12.178;2023-08-06T14:30:21;17.40;99.90
8736;DHT22;4404;49.308;12.178;2023-08-06T14:32:23;17.50;99.90
8736;DHT22;4404;49.308;12.178;2023-08-06T14:34:26;17.60;99.90
8736;DHT22;4404;49.308;12.178;2023-08-06T14:36:30;17.40;99.90
8736;DHT22;4404;49.308;12.178;2023-08-06T14:38:33;17.50;99.90
8736;DHT22;4404;49.308;12.178;2023-08-06T14:40:35;17.50;99.90
8736;DHT22;4404;49.308;12.178;2023-08-06T14:42:38;17.40;99.90
8736;DHT22;4404;49.308;12.178;2023-08-06T14:44:41;17.40;99.90
8736;DHT22;4404;49.308;12.178;2023-08-06T14:46:44;17.40;99.90
8736;DHT22;4404;49.308;12.178;2023-08-06T14:48:48;17.40;99.90
8736;DHT22;4404;49.308;12.178;2023-08-06T14:50:50;17.30;99.90
8736;DHT22;4404;49.308;12.178;2023-08-06T14:52:55;17.20;99.90
8736;DHT22;4404;49.308;12.178;2023-08-06T14:54:57;17.20;99.90
8736;DHT22;4404;49.308;12.178;2023-08-06T14:57:04;17.40;99.90
8736;DHT22;4404;49.308;12.178;2023-08-06T14:59:07;17.50;99.90
8736;DHT22;4404;49.308;12.178;2023-08-06T15:01:10;17.20;99.90
8736;DHT22;4404;49.308;12.178;2023-08-06T15:03:12;17.00;99.90
8736;DHT22;4404;49.308;12.178;2023-08-06T15:05:14;17.10;99.90
8736;DHT22;4404;49.308;12.178;2023-08-06T15:07:16;17.30;99.90
8736;DHT22;4404;49.308;12.178;2023-08-06T15:09:20;17.20;99.90
8736;DHT22;4404;49.308;12.178;2023-08-06T15:11:23;17.30;99.90
8736;DHT22;4404;49.308;12.178;2023-08-06T15:13:25;17.40;99.90
8736;DHT22;4404;49.308;12.178;2023-08-06T15:15:27;17.10;99.90
8736;DHT22;4404;49.308;12.178;2023-08-06T15:17:29;17.00;99.90
8736;DHT22;4404;49.308;12.178;2023-08-06T15:19:30;16.90;99.90
8736;DHT22;4404;49.308;12.178;2023-08-06T15:21:32;16.80;99.90
8736;DHT22;4404;49.308;12.178;2023-08-06T15:23:35;16.90;99.90
8736;DHT22;4404;49.308;12.178;2023-08-06T15:25:43;16.90;99.90
8736;DHT22;4404;49.308;12.178;2023-08-06T15:27:45;16.80;99.90
8736;DHT22;4404;49.308;12.178;2023-08-06T15:29:49;16.80;99.90
8736;DHT22;4404;49.308;12.178;2023-08-06T15:31:52;16.80;99.90
8736;DHT22;4404;49.308;12.178;2023-08-06T15:33:54;16.80;99.90
8736;DHT22;4404;49.308;12.178;2023-08-06T15:35:56;16.70;99.90
8736;DHT22;4404;49.308;12.178;2023-08-06T15:37:59;16.60;99.90
8736;DHT22;4404;49.308;12.178;2023-08-06T15:40:01;16.60;99.90
8736;DHT22;4404;49.308;12.178;2023-08-06T15:42:06;16.50;99.90
8736;DHT22;4404;49.308;12.178;2023-08-06T15:44:07;16.30;99.90
8736;DHT22;4404;49.308;12.178;2023-08-06T15:46:09;16.20;99.90
8736;DHT22;4404;49.308;12.178;2023-08-06T15:48:11;16.10;99.90
8736;DHT22;4404;49.308;12.178;2023-08-06T15:50:12;16.00;99.90
8736;DHT22;4404;49.308;12.178;2023-08-06T15:52:15;15.10;99.90
8736;DHT22;4404;49.308;12.178;2023-08-06T15:54:18;15.90;99.90
8736;DHT22;4404;49.308;12.178;2023-08-06T15:56:20;15.80;99.90
8736;DHT22;4404;49.308;12.178;2023-08-06T15:58:23;15.70;99.90
8736;DHT22;4404;49.308;12.178;2023-08-06T16:00:26;15.70;99.90
8736;DHT22;4404;49.308;12.178;2023-08-06T16:02:28;15.60;99.90
8736;DHT22;4404;49.308;12.178;2023-08-06T16:04:30;15.40;99.90
8736;DHT22;4404;49.308;12.178;2023-08-06T16:06:33;15.40;99.90
8736;DHT22;4404;49.308;12.178;2023-08-06T16:08:34;15.50;99.90
8736;DHT22;4404;49.308;12.178;2023-08-06T16:10:36;15.30;99.90
8736;DHT22;4404;49.308;12.178;2023-08-06T16:12:37;15.40;99.90
8736;DHT22;4404;49.308;12.178;2023-08-06T16:14:41;15.30;99.90
8736;DHT22;4404;49.308;12.178;2023-08-06T16:16:46;15.30;99.90
8736;DHT22;4404;49.308;12.178;2023-08-06T16:18:48;15.20;99.90
8736;DHT22;4404;49.308;12.178;2023-08-06T16:20:52;15.20;99.90
8736;DHT22;4404;49.308;12.178;2023-08-06T16:22:54;15.20;99.90
8736;DHT22;4404;49.308;12.178;2023-08-06T16:24:56;15.10;99.90
8736;DHT22;4404;49.308;12.178;2023-08-06T16:26:58;15.10;99.90
8736;DHT22;4404;49.308;12.178;2023-08-06T16:29:05;15.10;99.90
8736;DHT22;4404;49.308;12.178;2023-08-06T16:31:09;14.90;99.90
8736;DHT22;4404;49.308;12.178;2023-08-06T16:33:11;14.90;99.90
8736;DHT22;4404;49.308;12.178;2023-08-06T16:35:14;14.90;99.90
8736;DHT22;4404;49.308;12.178;2023-08-06T16:37:16;14.80;99.90
8736;DHT22;4404;49.308;12.178;2023-08-06T16:39:17;14.80;99.90
8736;DHT22;4404;49.308;12.178;2023-08-06T16:41:22;14.90;99.90
8736;DHT22;4404;49.308;12.178;2023-08-06T16:43:24;14.90;99.90
8736;DHT22;4404;49.308;12.178;2023-08-06T16:45:26;14.90;99.90
8736;DHT22;4404;49.308;12.178;2023-08-06T16:47:29;14.90;99.90
8736;DHT22;4404;49.308;12.178;2023-08-06T16:49:32;14.90;99.90
8736;DHT22;4404;49.308;12.178;2023-08-06T16:51:34;14.80;99.90
8736;DHT22;4404;49.308;12.178;2023-08-06T16:53:36;14.90;99.90
8736;DHT22;4404;49.308;12.178;2023-08-06T16:55:39;14.90;99.90
8736;DHT22;4404;49.308;12.178;2023-08-06T16:57:44;14.90;99.90
8736;DHT22;4404;49.308;12.178;2023-08-06T17:00:01;14.90;99.90
8736;DHT22;4404;49.308;12.178;2023-08-06T17:02:06;14.90;99.90
8736;DHT22;4404;49.308;12.178;2023-08-06T17:04:10;14.80;99.90
8736;DHT22;4404;49.308;12.178;2023-08-06T17:06:12;14.70;99.90
8736;DHT22;4404;49.308;12.178;2023-08-06T17:08:17;14.70;99.90
8736;DHT22;4404;49.308;12.178;2023-08-06T17:10:19;14.70;99.90
8736;DHT22;4404;49.308;12.178;2023-08-06T17:12:27;14.60;99.90
8736;DHT22;4404;49.308;12.178;2023-08-06T17:14:29;14.70;99.90
8736;DHT22;4404;49.308;12.178;2023-08-06T17:16:37;14.80;99.90
8736;DHT22;4404;49.308;12.178;2023-08-06T17:18:39;14.70;99.90
8736;DHT22;4404;49.308;12.178;2023-08-06T17:20:45;14.60;99.90
8736;DHT22;4404;49.308;12.178;2023-08-06T17:22:47;14.60;99.90
8736;DHT22;4404;49.308;12.178;2023-08-06T17:24:50;14.60;99.90
8736;DHT22;4404;49.308;12.178;2023-08-06T17:26:52;14.70;99.90
8736;DHT22;4404;49.308;12.178;2023-08-06T17:28:59;14.70;99.90
8736;DHT22;4404;49.308;12.178;2023-08-06T17:31:01;14.80;99.90
8736;DHT22;4404;49.308;12.178;2023-08-06T17:33:02;14.90;99.90
8736;DHT22;4404;49.308;12.178;2023-08-06T17:35:05;14.90;99.90
8736;DHT22;4404;49.308;12.178;2023-08-06T17:37:10;14.80;99.90
8736;DHT22;4404;49.308;12.178;2023-08-06T17:39:12;14.80;99.90
8736;DHT22;4404;49.308;12.178;2023-08-06T17:41:14;14.80;99.90
8736;DHT22;4404;49.308;12.178;2023-08-06T17:43:17;14.90;99.90
8736;DHT22;4404;49.308;12.178;2023-08-06T17:45:19;14.90;99.90
8736;DHT22;4404;49.308;12.178;2023-08-06T17:47:23;14.90;99.90
8736;DHT22;4404;49.308;12.178;2023-08-06T17:49:24;14.90;99.90
8736;DHT22;4404;49.308;12.178;2023-08-06T17:51:27;14.80;99.90
8736;DHT22;4404;49.308;12.178;2023-08-06T17:53:30;14.80;99.90
8736;DHT22;4404;49.308;12.178;2023-08-06T17:55:32;14.80;99.90
8736;DHT22;4404;49.308;12.178;2023-08-06T17:57:35;14.90;99.90
8736;DHT22;4404;49.308;12.178;2023-08-06T17:59:39;14.90;99.90
8736;DHT22;4404;49.308;12.178;2023-08-06T18:01:42;14.80;99.90
8736;DHT22;4404;49.308;12.178;2023-08-06T18:03:44;14.90;99.90
8736;DHT22;4404;49.308;12.178;2023-08-06T18:05:55;14.90;99.90
8736;DHT22;4404;49.308;12.178;2023-08-06T18:07:57;14.80;99.90
8736;DHT22;4404;49.308;12.178;2023-08-06T18:10:04;14.80;99.90
8736;DHT22;4404;49.308;12.178;2023-08-06T18:12:08;14.20;99.90
8736;DHT22;4404;49.308;12.178;2023-08-06T18:14:10;14.80;99.90
8736;DHT22;4404;49.308;12.178;2023-08-06T18:16:12;14.80;99.90
8736;DHT22;4404;49.308;12.178;2023-08-06T18:18:15;14.70;99.90
8736;DHT22;4404;49.308;12.178;2023-08-06T18:20:17;14.60;99.90
8736;DHT22;4404;49.308;12.178;2023-08-06T18:22:19;14.60;99.90
8736;DHT22;4404;49.308;12.178;2023-08-06T18:24:21;14.60;99.90
8736;DHT22;4404;49.308;12.178;2023-08-06T18:26:24;14.60;99.90
8736;DHT22;4404;49.308;12.178;2023-08-06T18:28:26;14.70;99.90
8736;DHT22;4404;49.308;12.178;2023-08-06T18:30:29;14.60;99.90
8736;DHT22;4404;49.308;12.178;2023-08-06T18:32:33;14.50;99.90
8736;DHT22;4404;49.308;12.178;2023-08-06T18:34:38;14.50;99.90
8736;DHT22;4404;49.308;12.178;2023-08-06T18:36:40;13.70;99.90
8736;DHT22;4404;49.308;12.178;2023-08-06T18:38:43;14.30;99.90
8736;DHT22;4404;49.308;12.178;2023-08-06T18:40:55;14.40;99.90
8736;DHT22;4404;49.308;12.178;2023-08-06T18:43:00;14.50;99.90
8736;DHT22;4404;49.308;12.178;2023-08-06T18:45:02;14.50;99.90